createdAt,value
2022-11-30T00:01:17.326Z,8.60
2022-11-30T00:03:43.976Z,8.60
2022-11-30T00:06:12.413Z,8.60
2022-11-30T00:08:39.227Z,8.60
2022-11-30T00:11:13.461Z,8.60
2022-11-30T00:13:40.609Z,8.60
2022-11-30T00:16:07.602Z,8.50
2022-11-30T00:18:34.343Z,8.50
2022-11-30T00:21:04.754Z,8.50
2022-11-30T00:23:38.899Z,8.50
2022-11-30T00:26:07.350Z,8.40
2022-11-30T00:28:34.672Z,8.40
2022-11-30T00:31:02.514Z,8.40
2022-11-30T00:33:29.589Z,8.40
2022-11-30T00:35:58.159Z,8.40
2022-11-30T00:38:25.225Z,8.40
2022-11-30T00:40:52.038Z,8.40
2022-11-30T00:43:18.762Z,8.40
2022-11-30T00:45:45.495Z,8.40
2022-11-30T00:48:12.184Z,8.30
2022-11-30T00:50:38.855Z,8.30
2022-11-30T00:53:05.528Z,8.30
2022-11-30T00:55:33.389Z,8.40
2022-11-30T00:58:00.631Z,8.30
2022-11-30T01:00:27.761Z,8.30
2022-11-30T01:02:55.464Z,8.30
2022-11-30T01:05:22.176Z,8.30
2022-11-30T01:07:48.874Z,8.40
2022-11-30T01:10:15.725Z,8.40
2022-11-30T01:12:42.410Z,8.40
2022-11-30T01:15:09.480Z,8.40
2022-11-30T01:17:36.138Z,8.40
2022-11-30T01:20:04.677Z,8.30
2022-11-30T01:22:31.308Z,8.30
2022-11-30T01:24:57.959Z,8.30
2022-11-30T01:27:24.728Z,8.30
2022-11-30T01:29:51.417Z,8.30
2022-11-30T01:32:18.316Z,8.30
2022-11-30T01:34:45.219Z,8.30
2022-11-30T01:37:12.166Z,8.30
2022-11-30T01:39:38.922Z,8.30
2022-11-30T01:42:07.059Z,8.30
2022-11-30T01:44:39.658Z,8.30
2022-11-30T01:47:09.040Z,8.30
2022-11-30T01:49:41.724Z,8.30
2022-11-30T01:52:12.610Z,8.30
2022-11-30T01:54:48.793Z,8.30
2022-11-30T01:57:26.560Z,8.30
2022-11-30T01:59:54.473Z,8.30
2022-11-30T02:02:23.924Z,8.30
2022-11-30T02:04:50.681Z,8.30
2022-11-30T02:07:17.603Z,8.20
2022-11-30T02:09:44.961Z,8.20
2022-11-30T02:12:21.294Z,8.20
2022-11-30T02:14:50.144Z,8.10
2022-11-30T02:18:05.934Z,8.10
2022-11-30T02:20:42.953Z,8.10
2022-11-30T02:23:43.067Z,8.00
2022-11-30T02:26:36.585Z,8.00
2022-11-30T02:29:12.334Z,8.00
2022-11-30T02:32:04.858Z,8.00
2022-11-30T02:34:32.102Z,8.00
2022-11-30T02:36:59.192Z,8.00
2022-11-30T02:39:25.840Z,8.00
2022-11-30T02:41:52.481Z,8.00
2022-11-30T02:44:19.127Z,8.00
2022-11-30T02:46:55.025Z,8.00
2022-11-30T02:49:53.621Z,8.00
2022-11-30T02:52:21.409Z,7.90
2022-11-30T02:54:48.387Z,8.00
2022-11-30T02:57:15.220Z,7.90
2022-11-30T02:59:41.897Z,7.90
2022-11-30T03:02:08.680Z,7.90
2022-11-30T03:04:35.395Z,7.90
2022-11-30T03:07:02.216Z,7.90
2022-11-30T03:09:28.908Z,7.90
2022-11-30T03:11:55.562Z,7.90
2022-11-30T03:14:22.223Z,7.90
2022-11-30T03:16:48.840Z,7.90
2022-11-30T03:19:15.531Z,7.90
2022-11-30T03:21:42.188Z,7.90
2022-11-30T03:24:08.939Z,7.90
2022-11-30T03:26:35.597Z,7.90
2022-11-30T03:29:02.302Z,7.90
2022-11-30T03:31:29.175Z,8.00
2022-11-30T03:33:55.885Z,8.00
2022-11-30T03:36:22.615Z,8.00
2022-11-30T03:38:49.307Z,8.00
2022-11-30T03:41:16.738Z,8.00
2022-11-30T03:43:46.753Z,8.10
2022-11-30T03:46:13.671Z,8.10
2022-11-30T03:48:43.757Z,8.10
2022-11-30T03:51:10.875Z,8.10
2022-11-30T03:53:37.696Z,8.10
2022-11-30T03:56:05.908Z,8.10
2022-11-30T03:58:32.713Z,8.20
2022-11-30T04:01:04.297Z,8.20
2022-11-30T04:03:31.115Z,8.20
2022-11-30T04:05:58.520Z,8.20
2022-11-30T04:08:25.317Z,8.20
2022-11-30T04:10:52.728Z,8.20
2022-11-30T04:13:20.394Z,8.20
2022-11-30T04:15:50.994Z,8.20
2022-11-30T04:18:17.965Z,8.20
2022-11-30T04:20:44.641Z,8.20
2022-11-30T04:23:11.407Z,8.20
2022-11-30T04:25:39.006Z,8.20
2022-11-30T04:28:05.990Z,8.20
2022-11-30T04:30:33.361Z,8.20
2022-11-30T04:33:00.090Z,8.20
2022-11-30T04:35:26.839Z,8.20
2022-11-30T04:37:53.491Z,8.20
2022-11-30T04:40:20.148Z,8.20
2022-11-30T04:42:46.888Z,8.10
2022-11-30T04:45:13.651Z,8.10
2022-11-30T04:47:40.366Z,8.10
2022-11-30T04:50:07.598Z,8.10
2022-11-30T04:52:34.592Z,8.10
2022-11-30T04:55:01.408Z,8.10
2022-11-30T04:57:28.212Z,8.10
2022-11-30T04:59:54.928Z,8.10
2022-11-30T05:02:21.573Z,8.10
2022-11-30T05:04:48.430Z,8.00
2022-11-30T05:07:15.233Z,8.00
2022-11-30T05:09:41.875Z,8.00
2022-11-30T05:12:08.554Z,7.90
2022-11-30T05:14:35.225Z,7.90
2022-11-30T05:17:01.894Z,7.90
2022-11-30T05:19:28.550Z,7.80
2022-11-30T05:21:55.214Z,7.80
2022-11-30T05:24:21.997Z,7.80
2022-11-30T05:26:48.664Z,7.70
2022-11-30T05:29:15.368Z,7.70
2022-11-30T05:31:42.087Z,7.70
2022-11-30T05:34:08.770Z,7.60
2022-11-30T05:36:35.414Z,7.60
2022-11-30T05:39:02.222Z,7.60
2022-11-30T05:41:28.894Z,7.60
2022-11-30T05:43:56.692Z,7.50
2022-11-30T05:46:23.409Z,7.50
2022-11-30T05:48:50.144Z,7.50
2022-11-30T05:51:17.856Z,7.50
2022-11-30T05:53:45.134Z,7.50
2022-11-30T05:56:13.448Z,7.50
2022-11-30T05:58:40.313Z,7.50
2022-11-30T06:01:07.152Z,7.40
2022-11-30T06:03:34.764Z,7.40
2022-11-30T06:06:01.817Z,7.40
2022-11-30T06:08:28.548Z,7.50
2022-11-30T06:10:59.522Z,7.50
2022-11-30T06:13:28.931Z,7.50
2022-11-30T06:15:59.468Z,7.50
2022-11-30T06:18:26.417Z,7.50
2022-11-30T06:20:53.087Z,7.50
2022-11-30T06:23:19.826Z,7.60
2022-11-30T06:25:46.449Z,7.60
2022-11-30T06:28:13.744Z,7.60
2022-11-30T06:30:40.388Z,7.60
2022-11-30T06:33:07.053Z,7.60
2022-11-30T06:35:33.722Z,7.60
2022-11-30T06:38:03.178Z,7.70
2022-11-30T06:40:29.871Z,7.60
2022-11-30T06:42:56.709Z,7.70
2022-11-30T06:45:23.362Z,7.70
2022-11-30T06:47:49.997Z,7.60
2022-11-30T06:50:16.900Z,7.60
2022-11-30T06:52:43.633Z,7.60
2022-11-30T06:55:10.514Z,7.60
2022-11-30T06:57:37.225Z,7.60
2022-11-30T07:00:04.591Z,7.60
2022-11-30T07:02:31.392Z,7.60
2022-11-30T07:04:58.090Z,7.60
2022-11-30T07:07:24.903Z,7.70
2022-11-30T07:09:52.132Z,7.70
2022-11-30T07:12:18.892Z,7.60
2022-11-30T07:14:45.876Z,7.70
2022-11-30T07:17:12.960Z,7.70
2022-11-30T07:19:39.634Z,7.60
2022-11-30T07:22:06.272Z,7.60
2022-11-30T07:24:51.486Z,7.60
2022-11-30T07:27:18.115Z,7.60
2022-11-30T07:29:44.803Z,7.60
2022-11-30T07:32:11.576Z,7.50
2022-11-30T07:34:38.373Z,7.50
2022-11-30T07:37:05.113Z,7.50
2022-11-30T07:39:31.818Z,7.50
2022-11-30T07:41:58.762Z,7.50
2022-11-30T07:44:25.586Z,7.50
2022-11-30T07:46:52.331Z,7.50
2022-11-30T07:49:19.109Z,7.50
2022-11-30T07:51:45.893Z,7.60
2022-11-30T07:54:12.556Z,7.50
2022-11-30T07:56:39.232Z,7.50
2022-11-30T07:59:05.907Z,7.60
2022-11-30T08:01:32.999Z,7.50
2022-11-30T08:03:59.850Z,7.60
2022-11-30T08:06:28.077Z,7.60
2022-11-30T08:08:56.564Z,7.70
2022-11-30T08:11:25.209Z,7.60
2022-11-30T08:13:51.938Z,7.70
2022-11-30T08:16:23.006Z,7.70
2022-11-30T08:18:49.786Z,7.70
2022-11-30T08:21:18.490Z,7.70
2022-11-30T08:23:50.695Z,7.70
2022-11-30T08:26:25.341Z,7.70
2022-11-30T08:28:52.537Z,7.70
2022-11-30T08:31:23.232Z,7.80
2022-11-30T08:33:50.046Z,7.80
2022-11-30T08:36:21.265Z,7.80
2022-11-30T08:38:48.277Z,7.80
2022-11-30T08:41:16.826Z,7.80
2022-11-30T08:43:43.642Z,7.80
2022-11-30T08:46:42.585Z,7.80
2022-11-30T08:49:19.940Z,7.90
2022-11-30T08:54:32.645Z,7.90
2022-11-30T08:56:59.370Z,7.90
2022-11-30T08:59:26.178Z,7.90
2022-11-30T09:01:52.873Z,8.00
2022-11-30T09:04:19.543Z,7.90
2022-11-30T09:06:46.228Z,7.90
2022-11-30T09:09:13.637Z,8.00
2022-11-30T09:11:40.311Z,8.00
2022-11-30T09:14:09.058Z,8.00
2022-11-30T09:16:35.967Z,8.00
2022-11-30T09:19:02.675Z,8.00
2022-11-30T09:21:29.461Z,8.00
2022-11-30T09:23:56.700Z,7.90
2022-11-30T09:26:25.182Z,8.00
2022-11-30T09:28:52.374Z,8.00
2022-11-30T09:31:26.221Z,8.00
2022-11-30T09:33:53.245Z,8.00
2022-11-30T09:36:21.099Z,8.10
2022-11-30T09:38:48.061Z,8.10
2022-11-30T09:41:46.105Z,8.10
2022-11-30T09:44:21.626Z,8.10
2022-11-30T09:47:04.446Z,8.20
2022-11-30T09:49:34.253Z,8.20
2022-11-30T09:52:04.194Z,8.20
2022-11-30T09:54:39.308Z,8.20
2022-11-30T09:57:15.734Z,8.20
2022-11-30T09:59:45.285Z,8.30
2022-11-30T10:02:16.749Z,8.30
2022-11-30T10:04:43.528Z,8.30
2022-11-30T10:07:35.097Z,8.30
2022-11-30T10:10:34.153Z,8.30
2022-11-30T10:13:14.786Z,8.30
2022-11-30T10:15:57.654Z,8.40
2022-11-30T10:18:37.763Z,8.50
2022-11-30T10:21:23.102Z,8.50
2022-11-30T10:23:58.815Z,8.60
2022-11-30T10:26:27.788Z,8.60
2022-11-30T10:28:55.349Z,8.60
2022-11-30T10:31:37.730Z,8.70
2022-11-30T10:34:34.899Z,8.70
2022-11-30T10:37:19.698Z,8.70
2022-11-30T10:39:55.293Z,8.70
2022-11-30T10:42:30.736Z,8.70
2022-11-30T10:45:10.638Z,8.70
2022-11-30T10:47:46.518Z,8.70
2022-11-30T10:50:16.655Z,8.70
2022-11-30T10:52:51.565Z,8.80
2022-11-30T10:55:20.612Z,8.90
2022-11-30T10:57:47.994Z,9.00
2022-11-30T11:00:17.329Z,9.10
2022-11-30T11:02:48.720Z,9.10
2022-11-30T11:05:25.417Z,9.20
2022-11-30T11:08:05.962Z,9.30
2022-11-30T11:10:42.720Z,9.40
2022-11-30T11:13:38.697Z,9.50
2022-11-30T11:16:07.199Z,9.60
2022-11-30T11:18:34.950Z,9.50
2022-11-30T11:21:06.726Z,9.60
2022-11-30T11:23:40.745Z,9.60
2022-11-30T11:26:08.560Z,9.60
2022-11-30T11:28:36.042Z,9.60
2022-11-30T11:31:36.252Z,9.60
2022-11-30T11:34:03.392Z,9.60
2022-11-30T11:36:31.556Z,9.50
2022-11-30T11:38:58.436Z,9.50
2022-11-30T11:41:33.874Z,9.50
2022-11-30T11:44:09.717Z,9.70
2022-11-30T11:46:52.389Z,9.70
2022-11-30T11:49:21.423Z,9.70
2022-11-30T11:51:48.187Z,9.70
2022-11-30T11:54:30.686Z,9.70
2022-11-30T11:56:58.909Z,9.80
2022-11-30T11:59:42.362Z,9.90
2022-11-30T12:02:30.508Z,9.90
2022-11-30T12:04:59.319Z,9.90
2022-11-30T12:07:50.619Z,9.90
2022-11-30T12:13:24.502Z,10.00
2022-11-30T12:16:10.623Z,10.00
2022-11-30T12:18:56.242Z,10.10
2022-11-30T12:21:36.574Z,10.10
2022-11-30T12:24:13.906Z,10.10
2022-11-30T12:26:44.351Z,10.10
2022-11-30T12:29:13.933Z,10.20
2022-11-30T12:31:46.765Z,10.20
2022-11-30T12:34:29.215Z,10.20
2022-11-30T12:37:02.042Z,10.30
2022-11-30T12:40:16.946Z,10.30
2022-11-30T12:43:01.882Z,10.30
2022-11-30T12:45:34.567Z,10.30
2022-11-30T12:48:29.385Z,10.30
2022-11-30T12:51:08.281Z,10.30
2022-11-30T12:53:52.426Z,10.30
2022-11-30T12:56:28.205Z,10.30
2022-11-30T12:59:09.673Z,10.30
2022-11-30T13:01:50.619Z,10.40
2022-11-30T13:04:58.721Z,10.40
2022-11-30T13:07:27.846Z,10.40
2022-11-30T13:09:58.630Z,10.40
2022-11-30T13:12:36.092Z,10.40
2022-11-30T13:15:15.701Z,10.40
2022-11-30T13:17:42.980Z,10.40
2022-11-30T13:20:21.007Z,10.40
2022-11-30T13:23:10.253Z,10.40
2022-11-30T13:28:43.267Z,10.40
2022-11-30T13:31:38.924Z,10.50
2022-11-30T13:34:24.058Z,10.50
2022-11-30T13:36:50.791Z,10.50
2022-11-30T13:39:25.218Z,10.60
2022-11-30T13:42:28.912Z,10.70
2022-11-30T13:44:55.567Z,10.70
2022-11-30T13:47:32.003Z,10.70
2022-11-30T13:49:59.717Z,10.70
2022-11-30T13:53:05.955Z,10.70
2022-11-30T13:55:42.653Z,10.70
2022-11-30T13:58:10.690Z,10.70
2022-11-30T14:00:37.327Z,10.70
2022-11-30T14:03:22.232Z,10.60
2022-11-30T14:05:51.738Z,10.60
2022-11-30T14:08:21.181Z,10.60
2022-11-30T14:10:51.104Z,10.60
2022-11-30T14:13:20.128Z,10.60
2022-11-30T14:15:46.870Z,10.50
2022-11-30T14:18:19.776Z,10.60
2022-11-30T14:21:00.701Z,10.60
2022-11-30T14:23:47.090Z,10.60
2022-11-30T14:26:15.080Z,10.70
2022-11-30T14:28:58.605Z,10.80
2022-11-30T14:31:25.848Z,10.80
2022-11-30T14:34:10.346Z,10.90
2022-11-30T14:36:40.481Z,11.00
2022-11-30T14:39:27.033Z,11.20
2022-11-30T14:41:54.308Z,11.30
2022-11-30T14:44:21.048Z,11.30
2022-11-30T14:46:48.512Z,11.30
2022-11-30T14:49:20.525Z,11.30
2022-11-30T14:52:04.615Z,11.30
2022-11-30T14:54:56.767Z,11.30
2022-11-30T14:57:28.156Z,11.20
2022-11-30T14:59:55.147Z,11.10
2022-11-30T15:02:35.585Z,10.90
2022-11-30T15:05:02.256Z,10.70
2022-11-30T15:07:29.747Z,10.50
2022-11-30T15:10:05.352Z,10.30
2022-11-30T15:12:32.005Z,10.10
2022-11-30T15:15:21.255Z,10.00
2022-11-30T15:17:53.343Z,9.80
2022-11-30T15:20:26.841Z,9.70
2022-11-30T15:23:02.599Z,9.50
2022-11-30T15:25:35.704Z,9.40
2022-11-30T15:28:03.748Z,9.30
2022-11-30T15:30:30.772Z,9.20
2022-11-30T15:32:57.582Z,9.10
2022-11-30T15:35:38.569Z,8.90
2022-11-30T15:38:34.754Z,8.80
2022-11-30T15:41:03.593Z,8.70
2022-11-30T15:43:37.114Z,8.60
2022-11-30T15:46:03.994Z,8.50
2022-11-30T15:48:36.340Z,8.30
2022-11-30T15:51:03.125Z,8.20
2022-11-30T15:53:31.309Z,8.10
2022-11-30T15:56:06.575Z,8.00
2022-11-30T15:58:47.032Z,7.90
2022-11-30T16:01:20.534Z,7.80
2022-11-30T16:04:05.721Z,7.70
2022-11-30T16:06:45.749Z,7.60
2022-11-30T16:09:19.648Z,7.50
2022-11-30T16:11:48.384Z,7.40
2022-11-30T16:14:15.824Z,7.30
2022-11-30T16:16:42.620Z,7.20
2022-11-30T16:19:09.563Z,7.20
2022-11-30T16:21:36.300Z,7.10
2022-11-30T16:24:02.955Z,7.00
2022-11-30T16:26:49.856Z,6.90
2022-11-30T16:29:16.217Z,6.80
2022-11-30T16:31:42.955Z,6.70
2022-11-30T16:34:11.343Z,6.70
2022-11-30T16:36:38.895Z,6.60
2022-11-30T16:39:05.785Z,6.60
2022-11-30T16:41:32.481Z,6.60
2022-11-30T16:43:59.145Z,6.50
2022-11-30T16:46:27.185Z,6.50
2022-11-30T16:48:54.121Z,6.40
2022-11-30T16:51:25.825Z,6.40
2022-11-30T16:53:52.753Z,6.40
2022-11-30T16:56:19.590Z,6.40
2022-11-30T16:58:46.367Z,6.40
2022-11-30T17:01:35.506Z,6.40
2022-11-30T17:04:15.748Z,6.50
2022-11-30T17:06:42.420Z,6.50
2022-11-30T17:09:12.828Z,6.50
2022-11-30T17:11:39.573Z,6.50
2022-11-30T17:14:06.280Z,6.50
2022-11-30T17:16:33.093Z,6.60
2022-11-30T17:18:59.855Z,6.60
2022-11-30T17:21:28.574Z,6.60
2022-11-30T17:23:55.641Z,6.60
2022-11-30T17:26:22.399Z,6.60
2022-11-30T17:28:49.233Z,6.70
2022-11-30T17:31:16.495Z,6.70
2022-11-30T17:33:47.923Z,6.80
2022-11-30T17:36:15.801Z,6.80
2022-11-30T17:38:44.027Z,6.80
2022-11-30T17:41:18.557Z,6.80
2022-11-30T17:43:46.156Z,6.80
2022-11-30T17:46:15.761Z,6.80
2022-11-30T17:48:43.156Z,6.80
2022-11-30T17:51:10.235Z,6.90
2022-11-30T17:53:40.999Z,6.90
2022-11-30T17:56:08.511Z,6.90
2022-11-30T17:58:42.960Z,6.90
2022-11-30T18:01:21.784Z,6.90
2022-11-30T18:03:48.742Z,7.00
2022-11-30T18:06:15.794Z,7.00
2022-11-30T18:08:42.816Z,7.00
2022-11-30T18:11:13.641Z,7.00
2022-11-30T18:13:40.444Z,7.00
2022-11-30T18:16:10.325Z,7.10
2022-11-30T18:18:37.149Z,7.10
2022-11-30T18:21:08.071Z,7.10
2022-11-30T18:23:35.128Z,7.20
2022-11-30T18:26:06.104Z,7.20
2022-11-30T18:28:32.913Z,7.30
2022-11-30T18:30:59.988Z,7.30
2022-11-30T18:33:27.070Z,7.30
2022-11-30T18:35:58.234Z,7.30
2022-11-30T18:38:25.516Z,7.30
2022-11-30T18:40:52.241Z,7.40
2022-11-30T18:43:19.069Z,7.40
2022-11-30T18:45:45.825Z,7.40
2022-11-30T18:48:12.634Z,7.40
2022-11-30T18:50:39.773Z,7.40
2022-11-30T18:53:07.025Z,7.40
2022-11-30T18:55:33.968Z,7.40
2022-11-30T18:58:01.174Z,7.40
2022-11-30T19:00:27.967Z,7.50
2022-11-30T19:02:54.811Z,7.50
2022-11-30T19:05:35.128Z,7.50
2022-11-30T19:08:05.943Z,7.50
2022-11-30T19:10:36.339Z,7.50
2022-11-30T19:13:04.154Z,7.50
2022-11-30T19:15:40.616Z,7.50
2022-11-30T19:18:08.913Z,7.50
2022-11-30T19:20:40.140Z,7.50
2022-11-30T19:23:06.969Z,7.50
2022-11-30T19:25:33.832Z,7.50
2022-11-30T19:28:00.625Z,7.40
2022-11-30T19:30:27.511Z,7.40
2022-11-30T19:32:54.310Z,7.30
2022-11-30T19:35:23.025Z,7.30
2022-11-30T19:37:52.110Z,7.20
2022-11-30T19:40:18.904Z,7.10
2022-11-30T19:42:45.672Z,7.00
2022-11-30T19:45:12.373Z,6.90
2022-11-30T19:47:39.180Z,6.80
2022-11-30T19:50:06.316Z,6.70
2022-11-30T19:52:33.360Z,6.60
2022-11-30T19:55:00.080Z,6.50
2022-11-30T19:57:26.789Z,6.40
2022-11-30T19:59:53.790Z,6.40
2022-11-30T20:02:20.572Z,6.30
2022-11-30T20:04:47.507Z,6.30
2022-11-30T20:07:14.931Z,6.20
2022-11-30T20:09:41.595Z,6.20
2022-11-30T20:12:08.343Z,6.10
2022-11-30T20:14:36.809Z,6.10
2022-11-30T20:17:03.558Z,6.10
2022-11-30T20:19:30.291Z,6.20
2022-11-30T20:21:57.062Z,6.20
2022-11-30T20:24:23.700Z,6.20
2022-11-30T20:26:50.365Z,6.20
2022-11-30T20:29:17.448Z,6.30
2022-11-30T20:31:45.830Z,6.40
2022-11-30T20:34:12.536Z,6.40
2022-11-30T20:36:39.251Z,6.50
2022-11-30T20:39:06.158Z,6.50
2022-11-30T20:41:33.955Z,6.50
2022-11-30T20:44:00.700Z,6.50
2022-11-30T20:46:31.062Z,6.60
2022-11-30T20:48:57.979Z,6.60
2022-11-30T20:51:31.165Z,6.60
2022-11-30T20:54:05.511Z,6.70
2022-11-30T20:56:33.299Z,6.70
2022-11-30T20:59:07.448Z,6.70
2022-11-30T21:01:34.336Z,6.80
2022-11-30T21:04:01.314Z,6.70
2022-11-30T21:06:29.425Z,6.70
2022-11-30T21:08:56.092Z,6.70
2022-11-30T21:11:23.299Z,6.60
2022-11-30T21:13:50.524Z,6.60
2022-11-30T21:16:24.072Z,6.60
2022-11-30T21:18:53.746Z,6.60
2022-11-30T21:21:22.329Z,6.70
2022-11-30T21:23:49.231Z,6.70
2022-11-30T21:26:25.619Z,6.80
2022-11-30T21:28:53.808Z,6.80
2022-11-30T21:31:21.146Z,6.80
2022-11-30T21:33:52.683Z,6.80
2022-11-30T21:36:20.490Z,6.80
2022-11-30T21:38:47.241Z,6.80
2022-11-30T21:41:14.227Z,6.90
2022-11-30T21:43:41.127Z,6.90
2022-11-30T21:46:12.632Z,6.90
2022-11-30T21:48:41.114Z,6.90
2022-11-30T21:51:12.400Z,6.90
2022-11-30T21:53:47.005Z,7.00
2022-11-30T21:56:18.652Z,7.00
2022-11-30T21:58:46.789Z,7.00
2022-11-30T22:01:18.235Z,7.00
2022-11-30T22:03:45.117Z,7.00
2022-11-30T22:06:13.336Z,7.10
2022-11-30T22:08:41.199Z,7.10
2022-11-30T22:11:15.146Z,7.20
2022-11-30T22:13:42.102Z,7.20
2022-11-30T22:16:13.110Z,7.20
2022-11-30T22:18:40.249Z,7.20
2022-11-30T22:21:21.542Z,7.30
2022-11-30T22:23:55.738Z,7.30
2022-11-30T22:26:24.240Z,7.30
2022-11-30T22:29:04.572Z,7.30
2022-11-30T22:31:33.417Z,7.40
2022-11-30T22:34:00.564Z,7.30
2022-11-30T22:36:28.811Z,7.30
2022-11-30T22:38:59.468Z,7.20
2022-11-30T22:41:26.369Z,7.20
2022-11-30T22:43:53.314Z,7.20
2022-11-30T22:46:22.419Z,7.20
2022-11-30T22:48:49.469Z,7.30
2022-11-30T22:51:16.952Z,7.30
2022-11-30T22:53:43.682Z,7.30
2022-11-30T22:56:13.019Z,7.30
2022-11-30T22:58:40.368Z,7.30
2022-11-30T23:01:17.956Z,7.30
2022-11-30T23:03:45.397Z,7.30
2022-11-30T23:06:12.645Z,7.30
2022-11-30T23:08:39.402Z,7.40
2022-11-30T23:11:08.180Z,7.40
2022-11-30T23:13:35.099Z,7.40
2022-11-30T23:16:02.022Z,7.40
2022-11-30T23:18:36.725Z,7.40
2022-11-30T23:21:41.652Z,7.40
2022-11-30T23:24:09.950Z,7.40
2022-11-30T23:26:38.008Z,7.50
2022-11-30T23:29:06.374Z,7.50
2022-11-30T23:31:35.883Z,7.50
2022-11-30T23:34:07.920Z,7.50
2022-11-30T23:36:34.933Z,7.50
2022-11-30T23:39:04.251Z,7.50
2022-11-30T23:41:31.016Z,7.50
2022-11-30T23:43:57.821Z,7.50
2022-11-30T23:46:25.240Z,7.50
2022-11-30T23:48:52.209Z,7.50
2022-11-30T23:51:19.033Z,7.40
2022-11-30T23:53:46.124Z,7.40
2022-11-30T23:56:13.860Z,7.40
2022-11-30T23:58:40.799Z,7.40
